createdAt,value
2023-10-20T00:01:49.677Z,9.65
2023-10-20T00:04:16.456Z,9.64
2023-10-20T00:06:42.954Z,9.57
2023-10-20T00:09:10.620Z,9.49
2023-10-20T00:11:37.118Z,9.48
2023-10-20T00:14:03.622Z,9.40
2023-10-20T00:16:30.455Z,9.49
2023-10-20T00:18:57.425Z,9.38
2023-10-20T00:21:26.763Z,9.26
2023-10-20T00:23:56.088Z,9.36
2023-10-20T00:26:22.537Z,9.30
2023-10-20T00:28:48.961Z,9.12
2023-10-20T00:31:15.321Z,9.30
2023-10-20T00:33:42.008Z,9.20
2023-10-20T00:36:08.483Z,9.30
2023-10-20T00:38:35.297Z,9.31
2023-10-20T00:41:01.904Z,9.19
2023-10-20T00:43:35.689Z,9.07
2023-10-20T00:46:02.897Z,9.19
2023-10-20T00:48:29.834Z,8.98
2023-10-20T00:50:56.403Z,9.04
2023-10-20T00:53:23.065Z,9.09
2023-10-20T00:55:49.692Z,9.03
2023-10-20T00:58:19.193Z,8.90
2023-10-20T01:00:45.751Z,8.80
2023-10-20T01:03:12.436Z,8.89
2023-10-20T01:05:39.631Z,8.83
2023-10-20T01:08:06.619Z,8.79
2023-10-20T01:10:33.054Z,8.64
2023-10-20T01:12:59.591Z,8.69
2023-10-20T01:15:26.314Z,8.66
2023-10-20T01:17:52.916Z,8.62
2023-10-20T01:20:19.651Z,8.69
2023-10-20T01:22:46.140Z,8.61
2023-10-20T01:25:12.619Z,8.70
2023-10-20T01:27:39.212Z,8.60
2023-10-20T01:30:06.243Z,8.72
2023-10-20T01:32:32.926Z,8.69
2023-10-20T01:34:59.512Z,8.58
2023-10-20T01:37:26.206Z,8.57
2023-10-20T01:39:52.688Z,8.58
2023-10-20T01:42:19.345Z,8.60
2023-10-20T01:44:45.736Z,8.60
2023-10-20T01:47:12.203Z,8.61
2023-10-20T01:49:38.732Z,8.62
2023-10-20T01:52:05.120Z,8.42
2023-10-20T01:54:31.842Z,8.54
2023-10-20T01:56:58.420Z,8.49
2023-10-20T01:59:28.509Z,8.46
2023-10-20T02:01:55.047Z,8.56
2023-10-20T02:04:21.607Z,8.59
2023-10-20T02:06:48.084Z,8.47
2023-10-20T02:09:14.443Z,8.49
2023-10-20T02:11:40.875Z,8.54
2023-10-20T02:14:07.391Z,8.50
2023-10-20T02:16:34.389Z,8.46
2023-10-20T02:19:00.972Z,8.48
2023-10-20T02:21:29.710Z,8.45
2023-10-20T02:23:58.684Z,8.42
2023-10-20T02:26:25.188Z,8.48
2023-10-20T02:28:51.788Z,8.46
2023-10-20T02:31:19.010Z,8.27
2023-10-20T02:33:45.648Z,8.34
2023-10-20T02:36:23.018Z,8.42
2023-10-20T02:38:51.674Z,8.40
2023-10-20T02:41:18.150Z,8.41
2023-10-20T02:43:44.679Z,8.33
2023-10-20T02:46:11.243Z,8.38
2023-10-20T02:48:37.962Z,8.29
2023-10-20T02:51:12.110Z,8.39
2023-10-20T02:53:38.884Z,8.35
2023-10-20T02:56:11.116Z,8.29
2023-10-20T02:58:37.578Z,8.40
2023-10-20T03:01:06.759Z,8.40
2023-10-20T03:03:33.696Z,8.35
2023-10-20T03:06:01.292Z,8.34
2023-10-20T03:08:31.750Z,8.14
2023-10-20T03:11:01.491Z,8.30
2023-10-20T03:13:30.808Z,8.05
2023-10-20T03:15:57.337Z,8.32
2023-10-20T03:18:23.991Z,8.16
2023-10-20T03:20:51.407Z,8.23
2023-10-20T03:23:18.706Z,8.17
2023-10-20T03:25:45.405Z,8.23
2023-10-20T03:28:11.871Z,8.04
2023-10-20T03:30:39.323Z,8.25
2023-10-20T03:33:07.436Z,8.20
2023-10-20T03:35:34.739Z,8.23
2023-10-20T03:38:01.881Z,8.19
2023-10-20T03:40:31.740Z,8.13
2023-10-20T03:43:00.993Z,8.17
2023-10-20T03:45:27.433Z,8.13
2023-10-20T03:47:59.435Z,8.05
2023-10-20T03:50:26.001Z,8.00
2023-10-20T03:52:54.912Z,7.96
2023-10-20T03:55:21.346Z,8.06
2023-10-20T03:57:47.947Z,8.03
2023-10-20T04:00:15.637Z,8.09
2023-10-20T04:02:42.377Z,7.90
2023-10-20T04:05:09.162Z,7.99
2023-10-20T04:07:35.550Z,8.07
2023-10-20T04:10:02.005Z,7.87
2023-10-20T04:12:31.199Z,7.91
2023-10-20T04:14:57.670Z,7.94
2023-10-20T04:17:24.707Z,7.97
2023-10-20T04:19:51.238Z,8.03
2023-10-20T04:22:18.109Z,8.01
2023-10-20T04:24:44.573Z,7.91
2023-10-20T04:27:12.878Z,8.04
2023-10-20T04:29:39.356Z,7.94
2023-10-20T04:32:05.884Z,7.95
2023-10-20T04:34:32.696Z,7.93
2023-10-20T04:36:59.309Z,7.93
2023-10-20T04:39:25.840Z,7.84
2023-10-20T04:42:00.536Z,7.91
2023-10-20T04:44:27.554Z,7.71
2023-10-20T04:46:58.225Z,7.90
2023-10-20T04:49:30.443Z,7.66
2023-10-20T04:51:58.212Z,7.83
2023-10-20T04:54:24.715Z,7.74
2023-10-20T04:56:51.351Z,7.84
2023-10-20T04:59:20.334Z,7.77
2023-10-20T05:01:46.831Z,7.84
2023-10-20T05:04:15.657Z,7.84
2023-10-20T05:06:45.209Z,7.70
2023-10-20T05:09:12.253Z,7.78
2023-10-20T05:11:38.842Z,7.77
2023-10-20T05:14:05.432Z,7.83
2023-10-20T05:16:32.110Z,7.82
2023-10-20T05:19:01.873Z,7.82
2023-10-20T05:21:31.849Z,7.82
2023-10-20T05:23:58.247Z,7.77
2023-10-20T05:26:24.761Z,7.74
2023-10-20T05:28:51.246Z,7.68
2023-10-20T05:31:22.987Z,7.68
2023-10-20T05:33:49.607Z,7.70
2023-10-20T05:36:16.104Z,7.59
2023-10-20T05:38:42.733Z,7.75
2023-10-20T05:41:11.720Z,7.66
2023-10-20T05:43:39.155Z,7.72
2023-10-20T05:46:07.985Z,7.62
2023-10-20T05:48:37.259Z,7.72
2023-10-20T05:51:06.167Z,7.55
2023-10-20T05:53:32.846Z,7.69
2023-10-20T05:56:01.875Z,7.66
2023-10-20T05:58:28.301Z,7.46
2023-10-20T06:01:03.134Z,7.65
2023-10-20T06:03:30.482Z,7.58
2023-10-20T06:06:01.143Z,7.65
2023-10-20T06:08:29.396Z,7.69
2023-10-20T06:11:08.498Z,7.51
2023-10-20T06:13:37.876Z,7.62
2023-10-20T06:16:06.309Z,7.53
2023-10-20T06:18:36.124Z,7.54
2023-10-20T06:21:05.067Z,7.39
2023-10-20T06:23:32.176Z,7.49
2023-10-20T06:26:02.179Z,7.41
2023-10-20T06:28:29.669Z,7.62
2023-10-20T06:30:56.234Z,7.60
2023-10-20T06:33:22.699Z,7.38
2023-10-20T06:35:50.888Z,7.41
2023-10-20T06:38:18.560Z,7.55
2023-10-20T06:40:45.134Z,7.54
2023-10-20T06:43:11.642Z,7.38
2023-10-20T06:45:38.295Z,7.31
2023-10-20T06:48:08.178Z,7.48
2023-10-20T06:50:37.568Z,7.31
2023-10-20T06:53:08.708Z,7.52
2023-10-20T06:56:00.583Z,7.50
2023-10-20T06:58:29.009Z,7.49
2023-10-20T07:00:55.433Z,7.44
2023-10-20T07:03:22.089Z,7.36
2023-10-20T07:05:48.855Z,7.38
2023-10-20T07:08:15.375Z,7.49
2023-10-20T07:10:41.938Z,7.40
2023-10-20T07:13:09.956Z,7.22
2023-10-20T07:15:36.786Z,7.34
2023-10-20T07:18:07.051Z,7.50
2023-10-20T07:20:41.149Z,7.49
2023-10-20T07:23:07.697Z,7.37
2023-10-20T07:25:35.256Z,7.47
2023-10-20T07:28:02.621Z,7.43
2023-10-20T07:30:32.522Z,7.29
2023-10-20T07:33:01.512Z,7.36
2023-10-20T07:35:28.358Z,7.29
2023-10-20T07:37:55.020Z,7.23
2023-10-20T07:40:21.574Z,7.36
2023-10-20T07:42:48.174Z,7.41
2023-10-20T07:45:14.958Z,7.19
2023-10-20T07:47:41.629Z,7.23
2023-10-20T07:50:08.462Z,7.31
2023-10-20T07:52:37.967Z,7.20
2023-10-20T07:55:05.592Z,7.28
2023-10-20T07:57:32.344Z,7.31
2023-10-20T08:00:00.397Z,7.41
2023-10-20T08:02:26.997Z,7.32
2023-10-20T08:04:56.777Z,7.18
2023-10-20T08:07:23.813Z,7.29
2023-10-20T08:09:50.469Z,7.30
2023-10-20T08:12:17.084Z,7.38
2023-10-20T08:14:43.727Z,7.25
2023-10-20T08:17:10.228Z,7.33
2023-10-20T08:19:36.952Z,7.31
2023-10-20T08:22:03.393Z,7.23
2023-10-20T08:24:30.035Z,7.32
2023-10-20T08:26:56.548Z,7.26
2023-10-20T08:29:23.151Z,7.19
2023-10-20T08:31:49.673Z,7.31
2023-10-20T08:34:16.244Z,7.19
2023-10-20T08:36:42.708Z,7.03
2023-10-20T08:39:09.354Z,7.09
2023-10-20T08:41:35.892Z,7.14
2023-10-20T08:44:37.355Z,7.18
2023-10-20T08:47:04.804Z,7.25
2023-10-20T08:49:31.588Z,7.10
2023-10-20T08:52:04.369Z,7.19
2023-10-20T08:54:31.813Z,7.18
2023-10-20T08:57:07.397Z,7.29
2023-10-20T08:59:35.443Z,7.16
2023-10-20T09:02:02.473Z,7.08
2023-10-20T09:04:32.011Z,7.15
2023-10-20T09:07:00.412Z,7.21
2023-10-20T09:09:27.056Z,7.20
2023-10-20T09:11:56.402Z,7.03
2023-10-20T09:14:23.048Z,7.07
2023-10-20T09:16:51.278Z,7.03
2023-10-20T09:19:17.891Z,7.14
2023-10-20T09:21:46.202Z,7.23
2023-10-20T09:24:15.587Z,7.22
2023-10-20T09:26:42.244Z,7.23
2023-10-20T09:29:09.857Z,7.19
2023-10-20T09:31:37.995Z,7.04
2023-10-20T09:34:04.847Z,7.30
2023-10-20T09:36:33.085Z,7.18
2023-10-20T09:39:25.642Z,7.13
2023-10-20T09:41:59.898Z,7.19
2023-10-20T09:44:46.813Z,7.16
2023-10-20T09:47:36.492Z,7.17
2023-10-20T09:50:03.238Z,7.28
2023-10-20T09:52:33.148Z,7.09
2023-10-20T09:55:02.828Z,7.32
2023-10-20T09:57:32.163Z,7.29
2023-10-20T10:00:00.613Z,7.27
2023-10-20T10:02:30.916Z,7.16
2023-10-20T10:04:58.958Z,7.06
2023-10-20T10:07:38.248Z,7.24
2023-10-20T10:10:09.074Z,7.30
2023-10-20T10:12:35.779Z,7.23
2023-10-20T10:15:07.661Z,7.32
2023-10-20T10:20:43.770Z,7.32
2023-10-20T10:23:11.993Z,7.38
2023-10-20T10:25:43.343Z,7.32
2023-10-20T10:28:14.795Z,7.29
2023-10-20T10:30:43.658Z,7.38
2023-10-20T10:33:12.351Z,7.20
2023-10-20T10:35:40.177Z,7.24
2023-10-20T10:38:18.580Z,7.29
2023-10-20T10:40:46.774Z,7.29
2023-10-20T10:43:18.040Z,7.34
2023-10-20T10:45:44.859Z,7.29
2023-10-20T10:48:15.044Z,7.24
2023-10-20T10:50:43.580Z,7.34
2023-10-20T10:53:11.293Z,7.31
2023-10-20T10:55:38.490Z,7.23
2023-10-20T10:58:10.641Z,7.23
2023-10-20T11:00:39.144Z,7.26
2023-10-20T11:03:10.261Z,7.25
2023-10-20T11:05:41.255Z,7.30
2023-10-20T11:08:09.624Z,7.30
2023-10-20T11:10:38.900Z,7.39
2023-10-20T11:13:12.310Z,7.36
2023-10-20T11:15:41.138Z,7.38
2023-10-20T11:18:11.385Z,7.24
2023-10-20T11:20:42.696Z,7.27
2023-10-20T11:23:10.706Z,7.29
2023-10-20T11:25:38.550Z,7.13
2023-10-20T11:28:08.205Z,7.15
2023-10-20T11:30:37.310Z,7.27
2023-10-20T11:33:05.371Z,7.30
2023-10-20T11:35:32.186Z,7.26
2023-10-20T11:37:59.584Z,7.14
2023-10-20T11:40:26.872Z,7.20
2023-10-20T11:42:59.348Z,7.20
2023-10-20T11:45:26.073Z,7.06
2023-10-20T11:47:53.039Z,7.30
2023-10-20T11:50:22.636Z,7.30
2023-10-20T11:52:49.492Z,7.32
2023-10-20T11:55:15.947Z,7.09
2023-10-20T11:57:43.097Z,7.28
2023-10-20T12:00:10.341Z,7.21
2023-10-20T12:02:41.077Z,7.22
2023-10-20T12:05:08.750Z,7.19
2023-10-20T12:07:38.813Z,7.06
2023-10-20T12:10:08.594Z,6.97
2023-10-20T12:12:38.228Z,6.99
2023-10-20T12:15:06.923Z,7.26
2023-10-20T12:17:33.510Z,7.16
2023-10-20T12:20:00.080Z,7.20
2023-10-20T12:22:26.474Z,7.24
2023-10-20T12:24:52.891Z,7.24
2023-10-20T12:27:19.320Z,7.24
2023-10-20T12:29:45.983Z,7.27
2023-10-20T12:32:12.491Z,7.18
2023-10-20T12:34:39.506Z,7.20
2023-10-20T12:37:06.094Z,7.16
2023-10-20T12:39:33.030Z,7.17
2023-10-20T12:42:02.654Z,7.13
2023-10-20T12:44:33.787Z,7.08
2023-10-20T12:47:00.676Z,7.00
2023-10-20T12:49:27.133Z,7.21
2023-10-20T12:51:56.758Z,7.09
2023-10-20T12:54:23.267Z,7.09
2023-10-20T12:56:49.700Z,7.25
2023-10-20T12:59:18.748Z,7.10
2023-10-20T13:01:45.476Z,7.14
2023-10-20T13:04:13.224Z,7.16
2023-10-20T13:06:53.792Z,7.19
2023-10-20T13:09:25.582Z,7.09
2023-10-20T13:11:56.174Z,7.10
2023-10-20T13:14:23.012Z,7.08
2023-10-20T13:16:49.836Z,7.16
2023-10-20T13:19:16.531Z,7.05
2023-10-20T13:21:43.749Z,7.17
2023-10-20T13:24:13.177Z,7.02
2023-10-20T13:26:39.837Z,7.08
2023-10-20T13:29:06.532Z,6.88
2023-10-20T13:31:35.301Z,7.07
2023-10-20T13:34:02.205Z,7.06
2023-10-20T13:36:31.139Z,7.01
2023-10-20T13:38:58.060Z,6.99
2023-10-20T13:41:25.814Z,7.04
2023-10-20T13:43:54.915Z,6.89
2023-10-20T13:46:21.790Z,7.03
2023-10-20T13:48:48.727Z,6.85
2023-10-20T13:51:15.391Z,6.87
2023-10-20T13:53:41.910Z,6.90
2023-10-20T13:56:08.433Z,6.95
2023-10-20T13:58:35.060Z,7.00
2023-10-20T14:01:10.361Z,6.96
2023-10-20T14:03:36.975Z,6.92
2023-10-20T14:06:05.451Z,6.99
2023-10-20T14:08:32.221Z,6.84
2023-10-20T14:10:59.914Z,6.94
2023-10-20T14:13:26.456Z,6.92
2023-10-20T14:15:53.014Z,6.94
2023-10-20T14:18:19.545Z,6.89
2023-10-20T14:20:46.145Z,6.82
2023-10-20T14:23:12.559Z,6.93
2023-10-20T14:25:39.050Z,6.83
2023-10-20T14:28:07.178Z,6.75
2023-10-20T14:30:34.704Z,6.71
2023-10-20T14:33:01.389Z,6.80
2023-10-20T14:35:28.504Z,6.81
2023-10-20T14:37:56.612Z,6.77
2023-10-20T14:40:23.037Z,6.75
2023-10-20T14:42:49.480Z,6.79
2023-10-20T14:45:15.945Z,6.82
2023-10-20T14:47:42.606Z,6.73
2023-10-20T14:50:09.346Z,6.94
2023-10-20T14:52:38.884Z,6.85
2023-10-20T14:55:09.107Z,6.88
2023-10-20T14:57:39.249Z,6.75
2023-10-20T15:00:07.514Z,6.82
2023-10-20T15:02:33.953Z,6.88
2023-10-20T15:05:03.708Z,6.69
2023-10-20T15:07:33.815Z,6.67
2023-10-20T15:10:03.580Z,6.75
2023-10-20T15:12:30.062Z,6.79
2023-10-20T15:14:56.561Z,6.92
2023-10-20T15:17:56.662Z,6.94
2023-10-20T15:20:32.218Z,6.88
2023-10-20T15:23:16.406Z,6.91
2023-10-20T15:25:44.944Z,6.95
2023-10-20T15:28:11.499Z,6.97
2023-10-20T15:30:38.225Z,6.94
2023-10-20T15:33:06.747Z,6.97
2023-10-20T15:35:38.568Z,7.01
2023-10-20T15:38:05.097Z,6.95
2023-10-20T15:40:37.215Z,6.87
2023-10-20T15:43:32.425Z,6.82
2023-10-20T15:46:03.908Z,6.87
2023-10-20T15:48:38.266Z,6.85
2023-10-20T15:51:08.469Z,7.10
2023-10-20T15:53:35.095Z,7.08
2023-10-20T15:56:13.928Z,6.85
2023-10-20T15:58:40.343Z,6.98
2023-10-20T16:01:10.639Z,6.93
2023-10-20T16:03:37.438Z,7.00
2023-10-20T16:06:04.306Z,7.15
2023-10-20T16:08:37.787Z,6.97
2023-10-20T16:11:06.373Z,7.10
2023-10-20T16:13:33.025Z,6.97
2023-10-20T16:15:59.495Z,7.08
2023-10-20T16:23:49.606Z,7.04
2023-10-20T16:26:28.456Z,7.22
2023-10-20T16:28:55.153Z,7.09
2023-10-20T16:31:23.212Z,7.01
2023-10-20T16:33:49.890Z,7.13
2023-10-20T16:36:16.572Z,7.17
2023-10-20T16:39:11.472Z,7.06
2023-10-20T16:45:34.250Z,7.13
2023-10-20T16:48:05.574Z,7.24
2023-10-20T16:50:47.899Z,7.20
2023-10-20T16:53:52.559Z,7.22
2023-10-20T16:56:19.278Z,7.37
2023-10-20T16:58:45.833Z,7.21
2023-10-20T17:01:12.308Z,7.37
2023-10-20T17:03:38.948Z,7.23
2023-10-20T17:06:08.547Z,7.30
2023-10-20T17:08:35.063Z,7.44
2023-10-20T17:11:05.850Z,7.32
2023-10-20T17:13:33.435Z,7.31
2023-10-20T17:16:08.797Z,7.47
2023-10-20T17:18:36.335Z,7.49
2023-10-20T17:21:10.368Z,7.44
2023-10-20T17:23:37.032Z,7.56
2023-10-20T17:26:04.962Z,7.57
2023-10-20T17:31:14.627Z,7.48
2023-10-20T17:33:41.239Z,7.51
2023-10-20T17:36:10.999Z,7.60
2023-10-20T17:38:48.246Z,7.56
2023-10-20T17:41:14.982Z,7.65
2023-10-20T17:43:41.788Z,7.57
2023-10-20T17:46:12.101Z,7.60
2023-10-20T17:48:52.774Z,7.65
2023-10-20T17:53:59.724Z,7.55
2023-10-20T18:00:11.910Z,7.69
2023-10-20T18:02:41.622Z,7.64
2023-10-20T18:05:08.647Z,7.78
2023-10-20T18:07:35.304Z,7.72
2023-10-20T18:10:02.143Z,7.64
2023-10-20T18:12:28.714Z,7.66
2023-10-20T18:14:55.333Z,7.74
2023-10-20T18:17:21.860Z,7.87
2023-10-20T18:19:48.394Z,7.84
2023-10-20T18:22:17.009Z,7.91
2023-10-20T18:24:46.482Z,7.77
2023-10-20T18:27:13.157Z,7.83
2023-10-20T18:29:39.850Z,7.88
2023-10-20T18:32:06.602Z,8.02
2023-10-20T18:34:33.040Z,8.05
2023-10-20T18:36:59.442Z,8.15
2023-10-20T18:39:25.933Z,8.22
2023-10-20T18:41:55.082Z,8.10
2023-10-20T18:44:21.622Z,8.24
2023-10-20T18:46:48.040Z,8.19
2023-10-20T18:49:14.471Z,8.30
2023-10-20T18:51:43.290Z,8.33
2023-10-20T18:54:10.208Z,8.34
2023-10-20T18:56:36.714Z,8.34
2023-10-20T18:59:03.561Z,8.35
2023-10-20T19:01:30.036Z,8.43
2023-10-20T19:03:56.599Z,8.47
2023-10-20T19:06:25.127Z,8.38
2023-10-20T19:08:51.573Z,8.52
2023-10-20T19:11:18.820Z,8.48
2023-10-20T19:13:45.262Z,8.51
2023-10-20T19:16:11.707Z,8.66
2023-10-20T19:18:38.456Z,8.60
2023-10-20T19:21:08.868Z,8.77
2023-10-20T19:23:35.639Z,8.78
2023-10-20T19:26:09.520Z,8.64
2023-10-20T19:28:39.106Z,8.82
2023-10-20T19:31:09.351Z,8.89
2023-10-20T19:33:36.950Z,8.95
2023-10-20T19:36:05.731Z,9.00
2023-10-20T19:38:35.433Z,9.15
2023-10-20T19:41:05.957Z,9.18
2023-10-20T19:43:32.409Z,9.21
2023-10-20T19:45:59.109Z,9.41
2023-10-20T19:48:25.668Z,9.46
2023-10-20T19:50:57.457Z,9.54
2023-10-20T19:53:24.215Z,9.47
2023-10-20T19:55:56.694Z,9.49
2023-10-20T19:58:23.426Z,9.73
2023-10-20T20:00:49.985Z,9.64
2023-10-20T20:03:16.581Z,9.70
2023-10-20T20:05:45.449Z,9.74
2023-10-20T20:08:12.078Z,9.85
2023-10-20T20:10:38.523Z,9.88
2023-10-20T20:13:07.723Z,9.85
2023-10-20T20:15:34.226Z,10.00
2023-10-20T20:18:00.762Z,10.01
2023-10-20T20:20:30.197Z,10.08
2023-10-20T20:22:56.606Z,10.02
2023-10-20T20:25:25.768Z,10.15
2023-10-20T20:27:57.862Z,10.22
2023-10-20T20:30:30.642Z,10.12
2023-10-20T20:32:57.147Z,10.31
2023-10-20T20:35:23.646Z,10.17
2023-10-20T20:37:56.160Z,10.27
2023-10-20T20:40:22.823Z,10.41
2023-10-20T20:42:49.367Z,10.37
2023-10-20T20:45:15.978Z,10.50
2023-10-20T20:47:57.627Z,10.63
2023-10-20T20:50:32.865Z,10.72
2023-10-20T20:53:07.702Z,10.71
2023-10-20T20:55:37.282Z,10.69
2023-10-20T20:58:24.064Z,10.70
2023-10-20T21:00:52.764Z,10.82
2023-10-20T21:03:19.404Z,10.81
2023-10-20T21:06:04.642Z,10.82
2023-10-20T21:08:31.262Z,10.77
2023-10-20T21:11:30.231Z,10.74
2023-10-20T21:16:52.120Z,10.91
2023-10-20T21:19:31.556Z,10.75
2023-10-20T21:22:07.015Z,10.78
2023-10-20T21:24:33.646Z,10.85
2023-10-20T21:27:00.265Z,10.86
2023-10-20T21:29:28.496Z,11.03
2023-10-20T21:31:55.528Z,11.01
2023-10-20T21:34:22.747Z,11.01
2023-10-20T21:36:56.343Z,10.94
2023-10-20T21:39:22.846Z,10.97
2023-10-20T21:41:49.276Z,10.93
2023-10-20T21:44:18.946Z,10.94
2023-10-20T21:46:48.872Z,10.92
2023-10-20T21:49:15.838Z,11.04
2023-10-20T21:51:42.322Z,11.11
2023-10-20T21:54:09.023Z,11.20
2023-10-20T21:56:35.586Z,11.22
2023-10-20T21:59:02.246Z,11.12
2023-10-20T22:01:28.806Z,11.11
2023-10-20T22:03:55.284Z,11.23
2023-10-20T22:06:21.924Z,11.24
2023-10-20T22:08:48.504Z,11.27
2023-10-20T22:11:14.973Z,11.23
2023-10-20T22:13:41.461Z,11.28
2023-10-20T22:16:08.250Z,11.32
2023-10-20T22:18:37.909Z,11.25
2023-10-20T22:21:07.100Z,11.26
2023-10-20T22:23:35.972Z,11.32
2023-10-20T22:26:02.540Z,11.38
2023-10-20T22:28:31.215Z,11.32
2023-10-20T22:30:58.933Z,11.31
2023-10-20T22:33:25.443Z,11.45
2023-10-20T22:35:54.072Z,11.39
2023-10-20T22:38:20.709Z,11.29
2023-10-20T22:40:47.120Z,11.36
2023-10-20T22:43:13.751Z,11.31
2023-10-20T22:45:40.925Z,11.26
2023-10-20T22:48:07.665Z,11.39
2023-10-20T22:50:34.155Z,11.32
2023-10-20T22:53:00.601Z,11.25
2023-10-20T22:55:27.201Z,11.11
2023-10-20T22:57:56.515Z,11.16
2023-10-20T23:00:23.074Z,11.04
2023-10-20T23:02:49.862Z,11.00
2023-10-20T23:05:19.513Z,10.94
2023-10-20T23:07:46.194Z,10.96
2023-10-20T23:10:12.631Z,10.92
2023-10-20T23:12:39.056Z,10.96
2023-10-20T23:15:09.634Z,10.85
2023-10-20T23:17:37.040Z,10.81
2023-10-20T23:20:03.741Z,10.77
2023-10-20T23:22:31.072Z,10.76
2023-10-20T23:24:57.771Z,10.68
2023-10-20T23:27:24.284Z,10.56
2023-10-20T23:29:50.926Z,10.52
2023-10-20T23:32:17.591Z,10.55
2023-10-20T23:34:44.090Z,10.50
2023-10-20T23:37:10.639Z,10.43
2023-10-20T23:39:37.579Z,10.48
2023-10-20T23:42:07.049Z,10.42
2023-10-20T23:44:33.653Z,10.50
2023-10-20T23:47:00.300Z,10.42
2023-10-20T23:49:26.902Z,10.46
2023-10-20T23:51:55.955Z,10.31
2023-10-20T23:54:22.496Z,10.32
2023-10-20T23:56:49.020Z,10.22
2023-10-20T23:59:15.602Z,10.16
